Chautauqua County-Jamestown Airport

Airport
ICAO code: 
KJHW
Summary
ICAO Region: 
NAM
Territory: 
Location: 
Jamestown, New York,
Coordinates: 
Aerial View: 
42° 9' 11.999" N, 79° 15' 28.001" W
Airport GND: 
Aircraft Ground De/Anti Icing
Metar
Observation
KJHW 060756Z AUTO 16013G16KT 10SM FEW016 OVC026 05/03 A2972 RMK AO2 RAE03 SLP081 P0000 T00500033
Station
Jamestown, Chautauqua County/Jamestown Airport
Date/Time
2021-12-06 07:56:00
Wind direction
160°
Wind speed
13 kts
Lowest cloud amount
few clouds
Temperature
5°C
Dew point
3.3°C
Humidity
88%
Weather condition
n/a

Description

Chautauqua County-Jamestown Airport is a public use airport located 6 km north of the central business district of Jamestown, a city in Chautauqua County, New York.

Climatology

Humid Continental climate (Köppen climate classification Dfb) - Variable weather patterns and a large seasonal temperature variance. Summers are often warm and humid with frequent thunderstorms and winters can be very cold with frequent snowfall and persistent snow cover.

Runways

Designator Length Width Surface Rops
13/31 1372 30 ASP Yes/Yes
7/25 1615 30 ASP Yes/Yes
Airport map: 
Aerial View: 

SKYbrary Partners:

Safety knowledge contributed by: